今朝の成田(2017/04/10)

CPA524/B-HNE(B773)

VNL100/JA11VA(A320)

JJP12/JA15JJ(A320)

JJP40/JA18JJ(A320)

ANA832/JA608A(B763)

*JJP501/JA17JJ(A320)

AMX058/N782AM(B788)

ANA814/JA619A(B763) with winglet

THA640/HS-TUD(A388)

ANA8522/JA8356(B763)

ANA818/JA802A(B788)

ANA179/JA820A(B788)

JAL740/JA837J(B788)

JAL724/JA861J(B788)

JAL752/JA844J(B788)

FDX5281/N855FD(B77L)

JAL726/JA862J(B789)

FDX5077/N892FD(B77L)

NCA049/JA08KZ(B744)

UPS119/N347UP(B763) with winglet

NCA228/JA04KZ(B744)

ANA8490/JA8323(B763)

VNL300/JA08VA(A320)

MAS80/9M-MLP(B738)

RJAA 092100Z 03005KT CAVOK 07/M02 Q1019 NOSIG RMK A3011

RJAA 092200Z 03007KT 9999 FEW030 BKN/// 08/M01 Q1020 NOSIG

今朝の成田は晴れているようです。